createdAt,value
2018-11-01T00:04:23.979Z,14.50
2018-11-01T00:09:09.031Z,14.67
2018-11-01T00:13:49.159Z,21.73
2018-11-01T00:18:29.193Z,30.20
2018-11-01T00:23:13.156Z,24.20
2018-11-01T00:27:53.590Z,27.47
2018-11-01T00:32:33.696Z,31.53
2018-11-01T00:37:13.848Z,30.70
2018-11-01T00:41:53.877Z,23.90
2018-11-01T00:46:33.948Z,22.00
2018-11-01T00:51:13.927Z,21.60
2018-11-01T00:55:54.597Z,21.43
2018-11-01T01:00:35.165Z,21.07
2018-11-01T01:05:15.641Z,17.03
2018-11-01T01:09:55.756Z,17.87
2018-11-01T01:14:35.563Z,15.53
2018-11-01T01:19:16.026Z,16.27
2018-11-01T01:23:56.725Z,11.10
2018-11-01T01:28:36.596Z,15.53
2018-11-01T01:33:19.213Z,14.17
2018-11-01T01:37:59.332Z,13.57
2018-11-01T01:42:51.532Z,15.40
2018-11-01T01:47:32.080Z,17.03
2018-11-01T01:52:12.997Z,16.60
2018-11-01T01:56:53.451Z,16.63
2018-11-01T02:01:34.148Z,16.57
2018-11-01T02:06:15.056Z,17.63
2018-11-01T02:10:55.095Z,19.97
2018-11-01T02:15:35.132Z,17.20
2018-11-01T02:20:16.957Z,18.43
2018-11-01T02:24:56.709Z,15.13
2018-11-01T02:29:36.730Z,12.77
2018-11-01T02:34:16.752Z,13.50
2018-11-01T02:38:56.441Z,12.93
2018-11-01T02:43:36.268Z,16.43
2018-11-01T02:48:16.165Z,18.43
2018-11-01T02:52:55.988Z,16.37
2018-11-01T02:57:35.969Z,14.97
2018-11-01T03:02:16.480Z,17.30
2018-11-01T03:06:56.540Z,13.17
2018-11-01T03:11:36.305Z,14.03
2018-11-01T03:16:16.433Z,12.93
2018-11-01T03:20:56.443Z,11.80
2018-11-01T03:25:36.212Z,12.43
2018-11-01T03:30:16.788Z,12.30
2018-11-01T03:34:57.017Z,15.97
2018-11-01T03:39:37.113Z,14.30
2018-11-01T03:44:17.383Z,14.40
2018-11-01T03:48:58.848Z,13.47
2018-11-01T03:53:39.240Z,14.93
2018-11-01T03:58:19.137Z,13.50
2018-11-01T04:02:59.068Z,12.47
2018-11-01T04:07:39.211Z,14.93
2018-11-01T04:12:19.018Z,13.67
2018-11-01T04:16:59.036Z,12.77
2018-11-01T04:21:50.288Z,13.60
2018-11-01T04:26:30.256Z,15.40
2018-11-01T04:31:10.114Z,15.43
2018-11-01T04:35:50.160Z,15.00
2018-11-01T04:40:29.856Z,15.30
2018-11-01T04:45:10.955Z,14.27
2018-11-01T04:49:51.136Z,16.67
2018-11-01T04:54:30.895Z,16.80
2018-11-01T04:59:10.953Z,15.17
2018-11-01T05:03:53.308Z,12.77
2018-11-01T05:08:33.315Z,13.63
2018-11-01T05:13:14.279Z,13.50
2018-11-01T05:17:55.398Z,11.67
2018-11-01T05:22:35.221Z,10.33
2018-11-01T05:27:15.185Z,11.10
2018-11-01T05:31:55.140Z,10.40
2018-11-01T05:36:35.141Z,11.50
2018-11-01T05:41:15.064Z,11.90
2018-11-01T05:45:56.038Z,12.03
2018-11-01T05:50:36.072Z,12.30
2018-11-01T05:55:15.754Z,10.83
2018-11-01T05:59:57.866Z,12.57
2018-11-01T06:04:37.726Z,14.37
2018-11-01T06:09:22.828Z,13.13
2018-11-01T06:14:02.768Z,12.57
2018-11-01T06:18:42.864Z,12.83
2018-11-01T06:23:22.749Z,12.77
2018-11-01T06:28:02.985Z,12.40
2018-11-01T06:32:43.529Z,13.30
2018-11-01T06:37:24.394Z,12.97
2018-11-01T06:42:07.408Z,12.90
2018-11-01T06:46:49.153Z,12.83
2018-11-01T06:51:29.921Z,12.73
2018-11-01T06:56:10.209Z,12.20
2018-11-01T07:00:50.146Z,17.87
2018-11-01T07:05:31.031Z,13.33
2018-11-01T07:10:15.478Z,31.73
2018-11-01T07:14:55.603Z,38.93
2018-11-01T07:19:36.829Z,27.47
2018-11-01T07:24:16.782Z,34.47
2018-11-01T07:28:56.734Z,30.20
2018-11-01T07:33:37.453Z,18.07
2018-11-01T07:38:17.431Z,17.67
2018-11-01T07:42:57.368Z,15.30
2018-11-01T07:47:38.660Z,20.70
2018-11-01T07:52:18.813Z,21.33
2018-11-01T07:56:58.781Z,18.83
2018-11-01T08:01:38.601Z,16.23
2018-11-01T08:06:18.548Z,14.87
2018-11-01T08:10:59.630Z,13.97
2018-11-01T08:15:39.509Z,23.87
2018-11-01T08:20:19.524Z,39.67
2018-11-01T08:24:59.114Z,56.53
2018-11-01T08:29:38.908Z,34.63
2018-11-01T08:34:18.940Z,32.87
2018-11-01T08:38:58.622Z,28.00
2018-11-01T08:43:39.480Z,21.53
2018-11-01T08:48:20.247Z,25.90
2018-11-01T08:53:00.577Z,20.33
2018-11-01T08:57:42.363Z,16.23
2018-11-01T09:02:23.589Z,15.27
2018-11-01T09:07:03.764Z,16.00
2018-11-01T09:11:43.589Z,16.30
2018-11-01T09:16:24.249Z,15.27
2018-11-01T09:21:04.268Z,17.47
2018-11-01T09:25:44.198Z,14.00
2018-11-01T09:30:24.189Z,12.50
2018-11-01T09:35:04.240Z,10.80
2018-11-01T09:39:43.849Z,9.90
2018-11-01T09:44:23.642Z,9.57
2018-11-01T09:49:03.633Z,10.80
2018-11-01T09:53:43.459Z,11.53
2018-11-01T09:58:23.619Z,13.50
2018-11-01T10:03:04.584Z,14.20
2018-11-01T10:07:44.537Z,13.70
2018-11-01T10:12:24.978Z,12.80
2018-11-01T10:17:06.165Z,13.60
2018-11-01T10:21:46.511Z,13.17
2018-11-01T10:26:26.445Z,13.53
2018-11-01T10:31:06.505Z,13.43
2018-11-01T10:35:48.201Z,12.93
2018-11-01T10:40:28.201Z,11.70
2018-11-01T10:45:08.438Z,12.00
2018-11-01T10:49:48.958Z,12.67
2018-11-01T10:54:29.121Z,12.27
2018-11-01T10:59:08.956Z,11.63
2018-11-01T11:03:49.734Z,17.27
2018-11-01T11:08:29.672Z,13.63
2018-11-01T11:13:10.424Z,12.80
2018-11-01T11:17:50.798Z,19.23
2018-11-01T11:22:30.624Z,14.20
2018-11-01T11:27:10.409Z,13.30
2018-11-01T11:31:50.282Z,16.67
2018-11-01T11:36:30.010Z,14.43
2018-11-01T11:41:09.820Z,16.53
2018-11-01T11:45:49.716Z,17.50
2018-11-01T11:50:29.695Z,17.00
2018-11-01T11:55:10.829Z,18.43
2018-11-01T11:59:50.795Z,16.87
2018-11-01T12:04:30.601Z,16.93
2018-11-01T12:09:12.777Z,17.90
2018-11-01T12:13:53.071Z,19.53
2018-11-01T12:18:32.980Z,21.47
2018-11-01T12:23:13.091Z,22.90
2018-11-01T12:27:53.074Z,19.73
2018-11-01T12:32:32.841Z,21.00
2018-11-01T12:37:13.075Z,21.00
2018-11-01T12:41:53.028Z,22.03
2018-11-01T12:46:33.319Z,24.37
2018-11-01T12:51:15.465Z,20.40
2018-11-01T12:55:59.037Z,23.73
2018-11-01T13:00:38.870Z,21.90
2018-11-01T13:05:18.860Z,21.57
2018-11-01T13:09:58.653Z,19.57
2018-11-01T13:14:39.294Z,18.00
2018-11-01T13:19:19.446Z,16.80
2018-11-01T13:23:59.584Z,19.27
2018-11-01T13:28:39.610Z,18.73
2018-11-01T13:33:19.833Z,15.68
2018-11-01T13:37:59.893Z,12.98
2018-11-01T13:42:40.296Z,11.43
2018-11-01T13:47:20.415Z,13.25
2018-11-01T13:52:01.282Z,12.70
2018-11-01T13:56:41.182Z,12.95
2018-11-01T14:01:21.043Z,13.53
2018-11-01T14:06:00.925Z,14.18
2018-11-01T14:10:40.848Z,13.83
2018-11-01T14:15:21.376Z,13.30
2018-11-01T14:20:01.148Z,15.23
2018-11-01T14:24:40.905Z,16.23
2018-11-01T14:29:20.777Z,17.75
2018-11-01T14:34:00.669Z,16.77
2018-11-01T14:38:41.093Z,17.70
2018-11-01T14:43:20.958Z,26.00
2018-11-01T14:48:01.012Z,21.45
2018-11-01T14:52:41.646Z,19.63
2018-11-01T14:57:22.559Z,17.77
2018-11-01T15:02:00.902Z,17.62
2018-11-01T15:06:41.120Z,18.57
2018-11-01T15:11:20.918Z,18.20
2018-11-01T15:16:00.952Z,17.77
2018-11-01T15:20:40.896Z,18.73
2018-11-01T15:25:20.853Z,22.62
2018-11-01T15:30:00.740Z,17.95
2018-11-01T15:34:40.697Z,19.75
2018-11-01T15:39:20.575Z,26.40
2018-11-01T15:44:00.468Z,20.85
2018-11-01T15:48:40.840Z,19.87
2018-11-01T15:53:20.739Z,18.90
2018-11-01T15:58:00.569Z,21.63
2018-11-01T16:02:41.646Z,20.83
2018-11-01T16:07:21.495Z,20.13
2018-11-01T16:12:01.405Z,21.40
2018-11-01T16:16:41.679Z,31.43
2018-11-01T16:21:21.510Z,27.83
2018-11-01T16:26:01.474Z,39.97
2018-11-01T16:30:41.405Z,61.87
2018-11-01T16:35:21.186Z,37.60
2018-11-01T16:40:00.892Z,30.97
2018-11-01T16:44:40.628Z,45.73
2018-11-01T16:49:21.013Z,45.00
2018-11-01T16:54:01.170Z,33.83
2018-11-01T16:58:41.085Z,30.17
2018-11-01T17:03:21.144Z,29.20
2018-11-01T17:08:01.004Z,25.67
2018-11-01T17:12:41.024Z,27.27
2018-11-01T17:17:20.920Z,38.97
2018-11-01T17:22:00.861Z,33.73
2018-11-01T17:26:41.002Z,37.33
2018-11-01T17:31:20.794Z,41.47
2018-11-01T17:36:00.732Z,37.73
2018-11-01T17:40:45.366Z,58.50
2018-11-01T17:45:25.466Z,37.67
2018-11-01T17:50:07.728Z,30.27
2018-11-01T17:54:47.512Z,28.23
2018-11-01T17:59:27.537Z,32.90
2018-11-01T18:04:07.917Z,40.63
2018-11-01T18:08:47.755Z,42.93
2018-11-01T18:13:28.090Z,38.50
2018-11-01T18:18:08.546Z,39.67
2018-11-01T18:22:48.396Z,39.43
2018-11-01T18:27:28.644Z,36.73
2018-11-01T18:32:08.455Z,36.17
2018-11-01T18:36:48.438Z,34.77
2018-11-01T18:41:28.306Z,27.30
2018-11-01T18:46:08.578Z,31.63
2018-11-01T18:50:48.363Z,25.87
2018-11-01T18:55:28.464Z,21.20
2018-11-01T19:00:11.747Z,16.17
2018-11-01T19:04:52.187Z,14.27
2018-11-01T19:09:32.013Z,12.00
2018-11-01T19:14:12.202Z,20.70
2018-11-01T19:18:52.340Z,15.33
2018-11-01T19:23:32.346Z,17.83
2018-11-01T19:28:12.262Z,9.43
2018-11-01T19:32:52.362Z,12.63
2018-11-01T19:37:32.306Z,6.65
2018-11-01T19:42:12.165Z,12.13
2018-11-01T19:46:52.290Z,9.28
2018-11-01T19:51:32.176Z,3.70
2018-11-01T19:56:12.198Z,4.30
2018-11-01T20:00:52.672Z,3.27
2018-11-01T20:05:32.833Z,3.15
2018-11-01T20:10:14.346Z,3.30
2018-11-01T20:14:54.276Z,3.08
2018-11-01T20:19:34.339Z,3.00
2018-11-01T20:24:14.401Z,3.17
2018-11-01T20:28:54.311Z,3.85
2018-11-01T20:33:34.279Z,3.80
2018-11-01T20:38:14.684Z,3.40
2018-11-01T20:42:55.670Z,2.98
2018-11-01T20:47:35.627Z,3.50
2018-11-01T20:52:15.429Z,3.30
2018-11-01T20:56:55.142Z,3.80
2018-11-01T21:01:34.881Z,3.77
2018-11-01T21:06:14.667Z,3.50
2018-11-01T21:10:55.283Z,3.22
2018-11-01T21:15:35.416Z,3.60
2018-11-01T21:20:15.486Z,3.15
2018-11-01T21:24:55.416Z,3.40
2018-11-01T21:29:35.550Z,3.40
2018-11-01T21:34:16.538Z,3.47
2018-11-01T21:38:56.827Z,3.25
2018-11-01T21:43:36.857Z,3.67
2018-11-01T21:48:17.486Z,3.17
2018-11-01T21:52:58.326Z,3.83
2018-11-01T21:57:39.201Z,4.10
2018-11-01T22:02:19.280Z,4.35
2018-11-01T22:07:00.324Z,4.00
2018-11-01T22:11:41.106Z,4.75
2018-11-01T22:16:21.340Z,5.17
2018-11-01T22:21:01.362Z,6.90
2018-11-01T22:25:41.080Z,8.10
2018-11-01T22:30:21.555Z,7.07
2018-11-01T22:35:01.408Z,6.30
2018-11-01T22:39:41.508Z,5.87
2018-11-01T22:44:21.712Z,5.30
2018-11-01T22:49:01.650Z,5.20
2018-11-01T22:53:41.424Z,6.05
2018-11-01T22:58:22.184Z,5.23
2018-11-01T23:03:02.676Z,5.67
2018-11-01T23:07:42.442Z,5.40
2018-11-01T23:12:22.795Z,5.05
2018-11-01T23:17:02.780Z,4.80
2018-11-01T23:21:42.988Z,4.80
2018-11-01T23:26:24.655Z,4.83
2018-11-01T23:31:04.626Z,4.30
2018-11-01T23:35:44.692Z,4.25
2018-11-01T23:40:29.777Z,3.80
2018-11-01T23:45:15.790Z,4.05
2018-11-01T23:51:35.037Z,4.10
2018-11-01T23:56:15.278Z,3.87
